Time;durP1;ratioP1;P1;durP2;ratioP2;P2;SDS_P1;SDS_P2;PMS_P1;PMS_P2;Temp;Humidity;BMP_temperature;BMP_pressure;BME280_temperature;BME280_humidity;BME280_pressure;Samples;Min_cycle;Max_cycle;Signal;HPM_P1;HPM_P2
2022/05/02 00:00:07;;;;;;;;;32.75;28.25;;;;;11.65;53.41;101080.88;4974963;28;45432;-64
2022/05/02 00:02:33;;;;;;;;;27.25;22.50;;;;;11.65;53.38;101080.88;4975125;28;45409;-57
2022/05/02 00:04:58;;;;;;;;;30.50;27.75;;;;;11.65;53.72;101075.63;4975184;28;45577;-57
2022/05/02 00:07:24;;;;;;;;;23.50;20.75;;;;;11.65;53.80;101073.84;4957318;28;45974;-59
2022/05/02 00:09:50;;;;;;;;;22.75;21.50;;;;;11.66;53.29;101070.31;4975179;28;45244;-59
2022/05/02 00:12:15;;;;;;;;;24.00;22.50;;;;;11.66;53.41;101069.44;4975408;28;45311;-59
2022/05/02 00:14:40;;;;;;;;;21.75;18.50;;;;;11.67;53.65;101061.50;4975986;28;45453;-58
2022/05/02 00:17:06;;;;;;;;;25.75;21.00;;;;;11.66;53.83;101058.91;4975153;28;46481;-61
2022/05/02 00:19:31;;;;;;;;;24.25;20.75;;;;;11.62;53.72;101058.16;4978166;28;45407;-59
2022/05/02 00:21:57;;;;;;;;;27.50;26.75;;;;;11.63;53.76;101053.75;4978757;28;45352;-63
2022/05/02 00:24:22;;;;;;;;;19.75;19.00;;;;;11.60;54.06;101053.84;4978875;28;45281;-59
2022/05/02 00:26:47;;;;;;;;;21.00;18.50;;;;;11.59;54.09;101052.13;4978581;28;45456;-61
2022/05/02 00:29:13;;;;;;;;;25.00;22.75;;;;;11.60;54.26;101051.22;4978820;28;45352;-60
2022/05/02 00:31:38;;;;;;;;;25.75;23.00;;;;;11.55;54.38;101046.97;4978647;28;45469;-63
2022/05/02 00:34:04;;;;;;;;;22.25;21.50;;;;;11.55;54.62;101046.97;4978702;28;45347;-65
2022/05/02 00:36:29;;;;;;;;;23.50;22.00;;;;;11.55;54.11;101052.25;4960672;28;47794;-64
2022/05/02 00:38:55;;;;;;;;;16.75;16.75;;;;;11.52;54.09;101038.34;4978439;28;46066;-62
2022/05/02 00:41:22;;;;;;;;;27.75;20.00;;;;;11.52;54.47;101046.25;4978438;28;45320;-60
2022/05/02 00:43:47;;;;;;;;;22.75;19.75;;;;;11.41;54.49;101025.56;4978296;28;45631;-61
2022/05/02 00:46:20;;;;;;;;;22.75;21.25;;;;;11.53;54.62;101050.59;4978011;28;45461;-64
2022/05/02 00:48:46;;;;;;;;;17.75;17.75;;;;;11.50;54.26;101038.38;4978301;28;45607;-61
2022/05/02 00:51:13;;;;;;;;;21.00;21.00;;;;;11.48;54.25;101039.38;4978238;28;45229;-65
2022/05/02 00:53:39;;;;;;;;;26.50;23.00;;;;;11.43;54.21;101031.63;4960530;28;45397;-59
2022/05/02 00:56:06;;;;;;;;;24.50;21.00;;;;;11.42;54.27;101029.91;4978048;28;45660;-59
2022/05/02 00:58:33;;;;;;;;;28.50;24.25;;;;;11.41;54.49;101028.19;4977891;28;45448;-62
2022/05/02 01:00:59;;;;;;;;;25.25;23.50;;;;;11.39;54.72;101024.75;4977980;28;45462;-62
2022/05/02 01:03:24;;;;;;;;;24.00;23.00;;;;;11.34;54.85;101024.94;4978040;28;45322;-62
2022/05/02 01:08:44;;;;;;;;;27.00;25.25;;;;;11.28;55.56;101011.13;4941746;28;45460;-60
2022/05/02 01:11:09;;;;;;;;;25.50;25.50;;;;;11.24;55.44;101011.22;4959933;28;45356;-64
2022/05/02 01:13:43;;;;;;;;;24.50;23.25;;;;;11.23;55.28;101004.25;4977794;28;45476;-67
2022/05/02 01:16:17;;;;;;;;;23.25;23.25;;;;;11.19;55.02;100997.38;4977754;28;45489;-64
2022/05/02 01:18:45;;;;;;;;;24.25;22.50;;;;;11.16;55.76;101008.00;4977894;28;45513;-65
2022/05/02 01:21:14;;;;;;;;;26.50;25.00;;;;;11.09;55.63;100990.72;4977629;28;45448;-64
2022/05/02 01:23:40;;;;;;;;;28.75;25.75;;;;;11.08;56.02;100997.75;4977814;28;45212;-60
2022/05/02 01:26:05;;;;;;;;;27.50;25.75;;;;;11.05;55.70;100992.59;4977310;28;45407;-62
2022/05/02 01:28:31;;;;;;;;;27.25;27.00;;;;;11.00;55.93;100991.03;4959499;28;45386;-60
2022/05/02 01:30:57;;;;;;;;;26.75;23.50;;;;;10.95;56.05;100993.81;4977567;28;45512;-62
2022/05/02 01:33:23;;;;;;;;;29.25;25.50;;;;;10.93;55.91;100995.66;4977405;28;45468;-60
2022/05/02 01:35:48;;;;;;;;;26.25;25.25;;;;;10.92;56.01;100994.81;4976996;28;45370;-62
2022/05/02 01:38:13;;;;;;;;;30.50;25.50;;;;;10.90;55.83;100996.63;4977515;28;45366;-63
2022/05/02 01:40:39;;;;;;;;;26.75;26.25;;;;;10.88;56.11;100998.47;4977273;28;45346;-62
2022/05/02 01:43:04;;;;;;;;;32.75;29.25;;;;;10.86;56.56;100994.16;4977450;28;45439;-64
2022/05/02 01:45:30;;;;;;;;;29.00;26.25;;;;;10.85;56.42;100995.94;4977181;28;46118;-63
2022/05/02 01:47:55;;;;;;;;;32.00;28.00;;;;;10.78;56.62;100984.75;4976847;28;45350;-63
2022/05/02 01:50:20;;;;;;;;;28.75;24.50;;;;;10.79;56.24;100997.00;4977336;28;45322;-62
2022/05/02 01:52:46;;;;;;;;;30.00;28.00;;;;;10.78;56.93;100997.91;4977646;28;45541;-63
2022/05/02 01:55:11;;;;;;;;;32.25;28.25;;;;;10.77;56.50;100997.97;4976926;28;45556;-63
2022/05/02 01:57:37;;;;;;;;;28.75;25.50;;;;;10.74;56.71;100992.81;4976915;28;45403;-63
2022/05/02 02:00:03;;;;;;;;;33.00;28.25;;;;;10.73;56.36;100999.84;4977205;28;45361;-62
2022/05/02 02:02:29;;;;;;;;;36.50;29.00;;;;;10.69;56.55;100989.50;4977260;28;45282;-63
2022/05/02 02:07:38;;;;;;;;;28.25;24.50;;;;;10.61;56.74;100989.72;4976932;28;45399;-63
2022/05/02 02:10:04;;;;;;;;;30.50;27.75;;;;;10.61;56.83;101003.75;4976871;28;45478;-64
2022/05/02 02:12:30;;;;;;;;;34.00;30.25;;;;;10.55;57.45;100996.03;4977182;28;45283;-61
2022/05/02 02:14:55;;;;;;;;;28.25;25.75;;;;;10.56;57.50;100999.56;4976728;28;45330;-64
2022/05/02 02:17:20;;;;;;;;;38.00;33.00;;;;;10.54;57.11;101001.38;4976531;28;45310;-64
2022/05/02 02:19:46;;;;;;;;;30.25;28.25;;;;;10.50;57.13;100990.09;4977100;28;45698;-62
2022/05/02 02:22:17;;;;;;;;;34.25;30.50;;;;;10.46;57.30;100991.97;4976935;28;45322;-63
2022/05/02 02:24:46;;;;;;;;;38.00;31.00;;;;;10.47;57.90;100991.06;4976575;28;46487;-61
2022/05/02 02:27:12;;;;;;;;;35.00;30.25;;;;;10.44;57.67;100985.91;4976602;28;45467;-58
2022/05/02 02:29:37;;;;;;;;;33.25;28.25;;;;;10.46;57.92;100985.84;4959151;28;45377;-61
2022/05/02 02:32:03;;;;;;;;;34.50;29.75;;;;;10.43;57.46;100989.44;4976884;28;46013;-59
2022/05/02 02:34:28;;;;;;;;;39.25;34.75;;;;;10.40;57.83;100976.41;4976573;28;46332;-60
2022/05/02 02:36:54;;;;;;;;;39.50;32.25;;;;;10.40;57.95;100975.53;4976600;28;45330;-60
2022/05/02 02:39:19;;;;;;;;;36.75;33.75;;;;;10.41;57.88;100979.88;4959347;28;45345;-62
2022/05/02 02:41:44;;;;;;;;;35.50;31.25;;;;;10.38;57.94;100979.03;4976384;28;45591;-65
2022/05/02 02:44:10;;;;;;;;;37.25;34.00;;;;;10.36;57.74;100980.00;4976483;28;46106;-62
2022/05/02 02:46:35;;;;;;;;;41.50;35.00;;;;;10.37;57.87;100977.31;4976404;28;45436;-65
2022/05/02 02:49:00;;;;;;;;;32.50;30.50;;;;;10.36;57.90;100977.38;4976337;28;45499;-64
2022/05/02 02:51:26;;;;;;;;;33.25;32.00;;;;;10.34;57.93;100974.78;4976636;28;45385;-64
2022/05/02 02:53:51;;;;;;;;;38.00;32.25;;;;;10.31;57.88;100964.38;4975902;28;51911;-62
2022/05/02 02:56:17;;;;;;;;;31.25;27.50;;;;;10.32;57.34;100973.97;4976469;28;45255;-61
2022/05/02 02:58:43;;;;;;;;;31.75;29.00;;;;;10.29;57.86;100965.34;4976315;28;45311;-62
2022/05/02 03:01:08;;;;;;;;;31.25;29.25;;;;;10.30;57.82;100969.69;4976468;28;45240;-65
2022/05/02 03:03:34;;;;;;;;;42.00;30.75;;;;;10.29;57.50;100971.44;4975890;28;45283;-64
2022/05/02 03:06:03;;;;;;;;;34.25;32.00;;;;;10.23;57.94;100959.38;4958055;28;45256;-62
2022/05/02 03:08:30;;;;;;;;;33.25;30.50;;;;;10.26;57.94;100966.28;4976067;28;45405;-65
2022/05/02 03:10:56;;;;;;;;;30.75;30.50;;;;;10.20;58.15;100962.09;4976123;28;45407;-61
2022/05/02 03:13:22;;;;;;;;;34.75;30.75;;;;;10.18;58.01;100955.16;4976145;28;45334;-61
2022/05/02 03:15:47;;;;;;;;;30.50;28.00;;;;;10.17;58.12;100958.69;4976094;28;45361;-63
2022/05/02 03:18:13;;;;;;;;;36.75;32.00;;;;;10.16;58.47;100954.34;4975852;28;45262;-63
2022/05/02 03:20:38;;;;;;;;;37.50;32.25;;;;;10.15;58.55;100953.50;4975865;28;45593;-65
2022/05/02 03:23:03;;;;;;;;;34.75;31.50;;;;;10.12;58.30;100952.72;4975488;28;45607;-62
2022/05/02 03:25:29;;;;;;;;;38.00;31.50;;;;;10.11;58.30;100943.13;4975480;28;45364;-62
2022/05/02 03:27:54;;;;;;;;;33.75;30.75;;;;;10.11;58.59;100949.25;4975770;28;45388;-60
2022/05/02 03:30:20;;;;;;;;;36.25;33.00;;;;;10.07;58.63;100951.13;4976302;28;45615;-61
2022/05/02 03:32:45;;;;;;;;;36.75;31.25;;;;;10.04;59.02;100947.72;4975649;28;46136;-62
2022/05/02 03:35:10;;;;;;;;;32.25;30.50;;;;;10.02;58.65;100945.16;4975522;28;45275;-64
2022/05/02 03:37:36;;;;;;;;;37.50;28.75;;;;;9.97;58.68;100936.56;4957925;28;45622;-60
2022/05/02 03:40:02;;;;;;;;;36.25;31.25;;;;;9.96;58.99;100942.72;4975743;28;45495;-58
2022/05/02 03:42:28;;;;;;;;;35.25;31.50;;;;;9.90;59.01;100938.50;4975191;28;46220;-60
2022/05/02 03:44:53;;;;;;;;;31.00;29.50;;;;;9.89;59.37;100941.19;4975749;28;45392;-64
2022/05/02 03:47:19;;;;;;;;;32.00;30.50;;;;;9.87;59.33;100940.38;4975848;28;45564;-64
2022/05/02 03:49:44;;;;;;;;;34.50;30.75;;;;;9.83;59.78;100938.75;4958037;28;45335;-64
2022/05/02 03:52:10;;;;;;;;;35.00;31.25;;;;;9.81;59.62;100932.69;4976253;28;46294;-64
2022/05/02 03:54:35;;;;;;;;;30.25;26.00;;;;;9.76;59.43;100932.81;4978776;28;45374;-63
2022/05/02 03:57:01;;;;;;;;;36.25;31.25;;;;;9.75;59.82;100928.47;4978898;28;45341;-65
2022/05/02 03:59:26;;;;;;;;;36.50;30.75;;;;;9.73;59.57;100935.53;4979025;28;45210;-65
2022/05/02 04:01:52;;;;;;;;;33.50;27.50;;;;;9.71;59.93;100929.47;4961388;28;46749;-65
2022/05/02 04:04:17;;;;;;;;;28.25;26.50;;;;;9.72;59.69;100934.69;4978802;28;45382;-65
2022/05/02 04:06:43;;;;;;;;;27.75;26.75;;;;;9.72;60.09;100936.44;4978854;28;45365;-65
2022/05/02 04:09:08;;;;;;;;;32.00;29.25;;;;;9.70;59.99;100935.63;4961159;28;45537;-67
2022/05/02 04:11:33;;;;;;;;;31.50;30.50;;;;;9.68;60.29;100933.06;4978437;28;46295;-66
2022/05/02 04:13:59;;;;;;;;;35.75;31.75;;;;;9.67;60.07;100930.47;4978499;28;45284;-64
2022/05/02 04:16:24;;;;;;;;;32.00;28.75;;;;;9.66;60.21;100929.63;4978979;28;45295;-63
2022/05/02 04:18:50;;;;;;;;;35.00;33.00;;;;;9.65;60.38;100939.28;4978821;28;45207;-62
2022/05/02 04:21:15;;;;;;;;;34.50;29.75;;;;;9.61;60.08;100924.50;4978218;28;46617;-63
2022/05/02 04:23:41;;;;;;;;;38.50;32.00;;;;;9.65;60.37;100934.00;4976889;28;45236;-65
2022/05/02 04:26:06;;;;;;;;;34.00;30.50;;;;;9.66;60.46;100932.25;4978429;28;45351;-65
2022/05/02 04:28:34;;;;;;;;;38.50;31.75;;;;;9.70;60.49;100935.63;4978481;28;45351;-64
2022/05/02 04:30:59;;;;;;;;;41.50;33.75;;;;;9.69;60.59;100934.78;4978137;28;47415;-64
2022/05/02 04:33:25;;;;;;;;;34.00;27.50;;;;;9.68;60.33;100938.34;4978115;28;45378;-62
2022/05/02 04:35:50;;;;;;;;;33.50;31.50;;;;;9.65;60.86;100931.38;4978320;28;45453;-60
2022/05/02 04:38:15;;;;;;;;;41.25;34.25;;;;;9.63;60.87;100927.94;4978434;28;45329;-59
2022/05/02 04:40:41;;;;;;;;;37.00;32.50;;;;;9.62;60.72;100920.97;4977877;28;45454;-61
2022/05/02 04:43:06;;;;;;;;;34.25;31.75;;;;;9.63;60.49;100927.09;4978036;28;45275;-59
2022/05/02 04:45:31;;;;;;;;;36.75;29.75;;;;;9.66;60.74;100927.00;4960550;28;45301;-59
2022/05/02 04:47:57;;;;;;;;;35.00;32.25;;;;;9.68;60.79;100934.81;4978218;28;45584;-60
2022/05/02 04:50:23;;;;;;;;;32.75;32.00;;;;;9.71;60.63;100932.09;4978086;28;46274;-60
2022/05/02 04:52:48;;;;;;;;;37.00;33.75;;;;;9.73;60.41;100940.81;4977547;28;45306;-60
2022/05/02 04:55:14;;;;;;;;;37.75;32.00;;;;;9.76;60.37;100935.44;4977930;28;45532;-61
2022/05/02 04:57:40;;;;;;;;;35.50;33.50;;;;;9.75;60.44;100929.34;4978234;28;45596;-59
2022/05/02 05:00:06;;;;;;;;;43.75;37.50;;;;;9.83;60.34;100938.75;4977664;28;45367;-61
2022/05/02 05:02:31;;;;;;;;;43.75;35.00;;;;;9.85;60.15;100937.78;4977578;28;45392;-62
2022/05/02 05:04:57;;;;;;;;;38.75;33.75;;;;;9.90;60.41;100937.66;4977420;28;45840;-62
2022/05/02 05:07:22;;;;;;;;;41.25;34.75;;;;;9.85;59.96;100931.69;4977889;28;45465;-60
2022/05/02 05:09:48;;;;;;;;;41.25;34.25;;;;;9.94;59.83;100934.03;4977612;28;46197;-61
2022/05/02 05:12:31;;;;;;;;;35.50;33.25;;;;;9.98;60.08;100933.00;4977759;28;45468;-61
2022/05/02 05:18:16;;;;;;;;;39.50;34.25;;;;;10.12;59.74;100940.47;4977631;28;45346;-60
2022/05/02 05:21:07;;;;;;;;;36.25;32.50;;;;;10.21;60.07;100944.53;4959947;28;48043;-62
2022/05/02 05:23:50;;;;;;;;;45.00;35.00;;;;;10.32;59.55;100941.56;4977371;28;45440;-59
2022/05/02 05:26:46;;;;;;;;;39.25;33.50;;;;;10.40;59.37;100930.81;4959758;28;45457;-64
2022/05/02 05:29:44;;;;;;;;;48.75;37.00;;;;;10.57;59.49;100941.63;4977580;28;45588;-62
2022/05/02 05:32:40;;;;;;;;;52.00;42.00;;;;;10.69;58.78;100934.25;4977094;28;46286;-60
2022/05/02 05:35:07;;;;;;;;;48.50;40.00;;;;;10.79;58.15;100938.25;4959364;28;45283;-63
2022/05/02 05:38:00;;;;;;;;;49.25;39.25;;;;;10.89;58.15;100950.19;4977510;28;45279;-60
2022/05/02 05:40:36;;;;;;;;;48.25;38.50;;;;;10.97;57.64;100944.63;4977530;28;45299;-60
2022/05/02 05:43:04;;;;;;;;;54.00;41.00;;;;;11.03;57.48;100941.75;4977248;28;46589;-61
2022/05/02 05:45:54;;;;;;;;;42.25;37.25;;;;;11.10;57.89;100939.78;4977464;28;45853;-60
2022/05/02 05:48:43;;;;;;;;;45.50;37.25;;;;;11.16;57.64;100936.91;4977044;28;45332;-64
2022/05/02 05:51:11;;;;;;;;;46.00;39.00;;;;;11.23;57.04;100941.03;4977276;28;45445;-62
2022/05/02 05:53:44;;;;;;;;;40.50;34.75;;;;;11.30;56.94;100946.09;4976585;28;45683;-65
2022/05/02 05:56:19;;;;;;;;;44.25;36.25;;;;;11.36;57.17;100936.19;4976990;28;45318;-64
2022/05/02 05:59:25;;;;;;;;;48.25;38.25;;;;;11.40;56.46;100929.88;4977224;28;45307;-64
2022/05/02 06:02:00;;;;;;;;;49.50;39.50;;;;;11.48;56.24;100934.00;4971198;28;45391;-61
2022/05/02 06:04:30;;;;;;;;;45.75;38.00;;;;;11.50;56.55;100926.91;4976632;28;45880;-62
2022/05/02 06:06:58;;;;;;;;;50.00;39.50;;;;;11.57;56.10;100938.91;4976659;28;45667;-63
2022/05/02 06:09:28;;;;;;;;;43.50;37.75;;;;;11.61;56.34;100940.50;4976700;28;45442;-61
2022/05/02 06:11:57;;;;;;;;;50.00;40.25;;;;;11.68;56.36;100930.59;4976834;28;45317;-61
2022/05/02 06:14:26;;;;;;;;;51.50;38.75;;;;;11.74;55.80;100935.63;4976439;28;46480;-64
2022/05/02 06:19:40;;;;;;;;;47.25;38.00;;;;;11.87;55.53;100937.78;4976492;28;45390;-62
2022/05/02 06:22:07;;;;;;;;;51.00;39.00;;;;;11.95;55.23;100941.81;4958681;28;45513;-62
2022/05/02 06:24:36;;;;;;;;;43.25;37.50;;;;;11.99;55.67;100945.19;4976117;28;45257;-61
2022/05/02 06:27:03;;;;;;;;;46.50;39.00;;;;;12.01;54.81;100937.25;4976906;28;45979;-65
2022/05/02 06:29:29;;;;;;;;;47.00;39.50;;;;;12.07;55.21;100945.78;4976785;28;45365;-66
2022/05/02 06:31:58;;;;;;;;;49.25;39.00;;;;;12.15;55.20;100944.59;4976768;28;45397;-68
2022/05/02 06:34:28;;;;;;;;;51.50;40.50;;;;;12.24;54.46;100945.09;4976144;28;45252;-64
2022/05/02 06:37:14;;;;;;;;;43.00;37.00;;;;;12.24;54.13;100945.09;4976564;28;45363;-63
2022/05/02 06:39:49;;;;;;;;;47.00;36.25;;;;;12.25;54.28;100941.53;4976924;28;45377;-62
2022/05/02 06:42:36;;;;;;;;;48.75;41.25;;;;;12.36;54.16;100940.22;4975986;28;45804;-64
2022/05/02 06:45:33;;;;;;;;;44.50;38.50;;;;;12.42;54.00;100932.91;4976334;28;45605;-64
2022/05/02 06:48:08;;;;;;;;;41.50;36.25;;;;;12.64;53.91;100953.06;4975044;28;45416;-60
2022/05/02 06:50:38;;;;;;;;;45.00;36.75;;;;;12.78;53.94;100944.56;4974839;28;45406;-63
2022/05/02 06:53:45;;;;;;;;;50.25;41.75;;;;;12.94;52.84;100954.47;4975122;28;45252;-62
2022/05/02 06:56:37;;;;;;;;;49.75;38.50;;;;;13.00;52.96;100949.78;4973448;28;46348;-64
2022/05/02 06:59:23;;;;;;;;;44.00;35.50;;;;;13.10;52.93;100938.81;4974851;28;45459;-64
2022/05/02 07:01:59;;;;;;;;;40.00;35.75;;;;;13.28;52.55;100955.63;4974952;28;45456;-60
2022/05/02 07:04:47;;;;;;;;;50.50;40.50;;;;;13.37;52.40;100952.53;4973926;28;45504;-63
2022/05/02 07:07:18;;;;;;;;;49.75;39.00;;;;;13.40;51.94;100938.31;4974649;28;46512;-64
2022/05/02 07:09:46;;;;;;;;;45.75;36.25;;;;;13.64;52.09;100953.97;4975208;28;46020;-64
2022/05/02 07:12:25;;;;;;;;;46.75;39.50;;;;;13.70;51.20;100951.06;4974724;28;45401;-61
2022/05/02 07:15:23;;;;;;;;;46.75;38.25;;;;;13.74;51.35;100955.25;4974642;28;45421;-61
2022/05/02 07:18:13;;;;;;;;;49.00;40.25;;;;;13.79;50.93;100945.34;4973766;28;45864;-62
2022/05/02 07:21:04;;;;;;;;;44.00;37.50;;;;;13.82;51.09;100949.63;4970033;28;45409;-63
2022/05/02 07:23:48;;;;;;;;;45.50;37.00;;;;;13.84;50.91;100956.56;4969329;28;45883;-64
2022/05/02 07:26:14;;;;;;;;;46.25;38.25;;;;;13.93;50.77;100954.41;4973111;28;45550;-64
2022/05/02 07:28:45;;;;;;;;;46.00;37.50;;;;;13.98;50.89;100957.69;4966949;28;45652;-64
2022/05/02 07:31:13;;;;;;;;;43.25;33.50;;;;;14.01;50.68;100958.38;4967766;28;45497;-63
2022/05/02 07:33:40;;;;;;;;;52.00;42.00;;;;;14.03;50.27;100956.50;4972734;28;45564;-63
2022/05/02 07:36:06;;;;;;;;;44.75;37.25;;;;;14.01;50.00;100957.53;4975451;28;45452;-62
2022/05/02 07:38:35;;;;;;;;;42.00;37.00;;;;;13.96;49.87;100959.56;4973535;28;46363;-64
2022/05/02 07:41:23;;;;;;;;;46.75;38.75;;;;;13.88;49.91;100959.91;4975032;28;45248;-64
2022/05/02 07:43:59;;;;;;;;;43.25;34.50;;;;;13.95;50.07;100960.47;4975218;28;45358;-63
2022/05/02 07:46:47;;;;;;;;;46.75;36.75;;;;;13.97;50.12;100962.09;4975859;28;45430;-62
2022/05/02 07:49:21;;;;;;;;;42.75;37.25;;;;;14.02;49.92;100961.88;4974756;28;45361;-64
2022/05/02 07:51:51;;;;;;;;;44.75;38.25;;;;;14.13;50.04;100964.00;4973795;28;45460;-63
2022/05/02 07:54:28;;;;;;;;;44.50;35.75;;;;;14.27;50.01;100964.16;4974982;28;45378;-63
2022/05/02 07:56:58;;;;;;;;;42.50;36.75;;;;;14.35;49.48;100965.59;4973585;28;45487;-62
2022/05/02 07:59:29;;;;;;;;;49.00;40.25;;;;;14.35;48.98;100962.97;4973350;28;45385;-63
2022/05/02 08:01:54;;;;;;;;;47.25;39.25;;;;;14.30;49.32;100958.72;4957223;28;45425;-66
2022/05/02 08:04:21;;;;;;;;;49.75;39.75;;;;;14.41;49.34;100966.13;4974867;28;45443;-66
2022/05/02 08:07:03;;;;;;;;;44.25;38.50;;;;;14.56;49.17;100963.66;4957297;28;45492;-65
2022/05/02 08:09:55;;;;;;;;;46.25;36.50;;;;;14.75;48.91;100966.25;4974833;28;46830;-65
2022/05/02 08:12:30;;;;;;;;;48.25;37.25;;;;;14.88;48.30;100967.31;4974653;28;45374;-65
2022/05/02 08:15:13;;;;;;;;;46.25;38.50;;;;;14.97;48.12;100968.66;4957088;28;45232;-64
2022/05/02 08:17:48;;;;;;;;;46.75;38.50;;;;;15.14;48.02;100972.19;4975114;28;45261;-64
2022/05/02 08:20:26;;;;;;;;;51.25;40.75;;;;;15.30;48.11;100964.25;4974417;28;45465;-65
2022/05/02 08:29:27;;;;;;;;;46.25;38.50;;;;;15.67;46.87;100956.09;4975387;28;45291;-62
2022/05/02 08:32:10;;;;;;;;;40.00;34.50;;;;;15.70;46.98;100963.88;4974978;28;45447;-64
2022/05/02 08:34:36;;;;;;;;;48.75;37.50;;;;;15.73;46.30;100955.75;4974839;28;45534;-64
2022/05/02 08:37:23;;;;;;;;;46.25;38.75;;;;;15.75;46.89;100953.88;4974479;28;45344;-67
2022/05/02 08:40:00;;;;;;;;;41.50;36.00;;;;;16.00;47.00;100952.53;4977276;28;45438;-65
2022/05/02 08:42:50;;;;;;;;;50.25;40.00;;;;;16.02;46.16;100953.28;4978038;28;45552;-63
2022/05/02 08:45:33;;;;;;;;;51.00;39.50;;;;;16.01;46.40;100948.94;4977763;28;45326;-63
2022/05/02 08:48:10;;;;;;;;;47.50;40.75;;;;;16.06;46.23;100954.84;4977450;28;45433;-64
2022/05/02 08:51:03;;;;;;;;;51.00;42.25;;;;;16.16;46.05;100956.00;4977701;28;45488;-63
2022/05/02 08:54:03;;;;;;;;;50.50;41.25;;;;;16.27;45.90;100950.06;4959828;28;47046;-63
2022/05/02 08:56:47;;;;;;;;;46.75;38.50;;;;;16.40;45.58;100950.22;4977420;28;45320;-65
2022/05/02 08:59:31;;;;;;;;;46.50;38.75;;;;;16.43;45.33;100949.16;4977267;28;45301;-63
2022/05/02 09:02:14;;;;;;;;;53.25;40.00;;;;;16.35;45.54;100949.63;4977543;28;45529;-63
2022/05/02 09:05:08;;;;;;;;;46.75;39.00;;;;;16.40;45.69;100950.22;4977048;28;45405;-63
2022/05/02 09:08:24;;;;;;;;;48.25;39.50;;;;;16.61;45.87;100956.06;4977301;28;45460;-62
2022/05/02 09:11:31;;;;;;;;;48.50;40.25;;;;;16.70;45.10;100957.28;4977152;28;45421;-65
2022/05/02 09:14:11;;;;;;;;;52.25;42.50;;;;;16.70;45.09;100948.47;4977488;28;45405;-62
2022/05/02 09:17:15;;;;;;;;;51.50;41.25;;;;;16.80;45.26;100944.31;4977406;28;46291;-62
2022/05/02 09:20:00;;;;;;;;;48.25;38.75;;;;;16.92;44.76;100948.00;4977016;28;45343;-64
2022/05/02 09:22:52;;;;;;;;;51.50;39.75;;;;;17.02;44.31;100951.88;4977241;28;45245;-63
2022/05/02 09:25:44;;;;;;;;;52.50;43.25;;;;;17.10;44.71;100942.56;4976969;28;45589;-64
2022/05/02 09:28:22;;;;;;;;;48.75;40.75;;;;;17.35;44.51;100948.06;4977319;28;45401;-62
2022/05/02 09:30:54;;;;;;;;;47.25;40.00;;;;;17.50;44.20;100943.59;4976909;28;45346;-62
2022/05/02 09:33:50;;;;;;;;;51.50;40.50;;;;;17.62;43.63;100944.59;4959038;28;45465;-62
2022/05/02 09:36:26;;;;;;;;;50.50;39.75;;;;;17.71;43.46;100931.63;4966514;28;45315;-62
2022/05/02 09:38:56;;;;;;;;;49.25;38.50;;;;;17.74;42.97;100936.75;4976826;28;45397;-62
2022/05/02 09:42:00;;;;;;;;;52.00;42.25;;;;;17.81;43.31;100933.63;4976698;28;45289;-63
2022/05/02 09:51:28;;;;;;;;;49.25;37.50;;;;;18.57;42.09;100924.25;4975994;28;45642;-63
2022/05/02 09:54:05;;;;;;;;;42.75;35.25;;;;;18.74;41.68;100929.25;4956164;28;45357;-63
2022/05/02 09:56:42;;;;;;;;;44.75;37.50;;;;;18.88;41.30;100924.78;4977093;28;45393;-65
2022/05/02 09:59:23;;;;;;;;;48.75;38.00;;;;;18.93;41.12;100918.19;4977398;28;45247;-65
2022/05/02 10:02:02;;;;;;;;;46.25;37.75;;;;;18.99;40.58;100927.56;4976311;28;46412;-64
2022/05/02 10:05:00;;;;;;;;;43.50;36.50;;;;;19.01;40.96;100922.16;4974462;28;45338;-63
2022/05/02 10:07:25;;;;;;;;;47.00;37.00;;;;;19.00;40.26;100928.44;4951069;28;45252;-63
2022/05/02 10:10:07;;;;;;;;;44.75;38.00;;;;;18.94;40.94;100924.34;4975850;28;45681;-63
2022/05/02 10:12:53;;;;;;;;;42.00;36.25;;;;;18.99;40.61;100924.91;4975600;28;45858;-63
2022/05/02 10:15:47;;;;;;;;;46.25;37.75;;;;;18.93;40.80;100923.50;4975994;28;45232;-63
2022/05/02 10:18:34;;;;;;;;;37.25;33.25;;;;;18.98;40.61;100928.53;4975955;28;45305;-64
2022/05/02 10:21:09;;;;;;;;;47.00;40.25;;;;;18.93;40.50;100915.50;4976200;28;45218;-63
2022/05/02 10:23:53;;;;;;;;;43.50;37.75;;;;;18.90;40.34;100920.19;4959006;28;46258;-64
2022/05/02 10:26:30;;;;;;;;;43.25;33.75;;;;;18.95;40.65;100913.59;4976039;28;45284;-63
2022/05/02 10:29:14;;;;;;;;;40.50;36.00;;;;;19.06;40.56;100926.19;4958615;28;45302;-63
2022/05/02 10:31:42;;;;;;;;;38.25;35.00;;;;;19.14;40.04;100922.97;4958773;28;45241;-62
2022/05/02 10:34:12;;;;;;;;;39.25;35.25;;;;;19.16;40.20;100904.22;4975439;28;46099;-63
2022/05/02 10:36:40;;;;;;;;;38.50;33.25;;;;;19.42;39.97;100908.53;4975643;28;45391;-62
2022/05/02 10:39:28;;;;;;;;;46.50;38.00;;;;;19.55;39.02;100920.97;4975842;28;45414;-64
2022/05/02 10:42:03;;;;;;;;;37.75;33.50;;;;;19.60;39.39;100913.47;4975607;28;45571;-64
2022/05/02 10:44:45;;;;;;;;;42.00;32.75;;;;;19.74;39.69;100908.94;4975911;28;46189;-64
2022/05/02 10:47:14;;;;;;;;;39.00;34.50;;;;;19.81;39.23;100905.72;4976092;28;45322;-62
2022/05/02 10:50:05;;;;;;;;;37.75;33.25;;;;;19.92;39.65;100904.94;4976000;28;45371;-64
2022/05/02 10:53:01;;;;;;;;;36.00;31.25;;;;;20.02;39.28;100904.25;4958121;28;45184;-64
2022/05/02 10:55:31;;;;;;;;;37.00;31.50;;;;;20.23;39.66;100894.63;4975627;28;45728;-63
2022/05/02 10:58:03;;;;;;;;;67.33;54.67;;;;;20.58;39.75;100896.38;4975599;28;45476;-65
2022/05/02 11:00:30;;;;;;;;;45.25;38.75;;;;;20.85;37.54;100899.75;4975696;28;45408;-64
2022/05/02 11:03:02;;;;;;;;;43.75;34.75;;;;;20.97;38.17;100905.91;4975414;28;45431;-64
2022/05/02 11:05:34;;;;;;;;;29.50;29.00;;;;;20.97;37.89;100888.06;4975340;28;45385;-64
2022/05/02 11:08:11;;;;;;;;;34.50;30.75;;;;;21.07;37.80;100893.50;4975501;28;45433;-63
2022/05/02 11:10:50;;;;;;;;;30.50;29.50;;;;;21.07;37.53;100893.50;4976044;28;45452;-65
2022/05/02 11:13:39;;;;;;;;;37.25;33.00;;;;;21.06;37.85;100886.47;4976091;28;45508;-64
2022/05/02 11:16:36;;;;;;;;;36.25;32.25;;;;;21.22;37.48;100879.91;4975731;28;45552;-65
2022/05/02 11:22:38;;;;;;;;;35.50;31.50;;;;;21.59;36.69;100885.75;4975424;28;45333;-66
2022/05/02 11:25:14;;;;;;;;;29.25;28.75;;;;;21.56;36.66;100886.00;4975389;28;45374;-62
2022/05/02 11:27:54;;;;;;;;;40.75;34.00;;;;;21.66;36.55;100886.16;4975439;28;46079;-65
2022/05/02 11:30:22;;;;;;;;;43.75;36.00;;;;;21.69;35.87;100883.22;4975001;28;45268;-65
2022/05/02 11:33:27;;;;;;;;;31.75;29.50;;;;;21.58;36.36;100880.56;4975187;28;45294;-66
2022/05/02 11:35:58;;;;;;;;;40.50;35.00;;;;;21.77;35.84;100866.53;4974641;28;45342;-65
2022/05/02 11:38:41;;;;;;;;;32.00;30.25;;;;;21.86;36.14;100867.56;4975275;28;46119;-65
2022/05/02 11:41:11;;;;;;;;;32.50;29.25;;;;;21.97;35.70;100875.56;4975544;28;45829;-63
2022/05/02 11:43:37;;;;;;;;;35.75;31.00;;;;;21.92;35.62;100864.38;4975349;28;45390;-65
2022/05/02 11:46:24;;;;;;;;;38.75;32.00;;;;;21.91;35.91;100865.38;4975374;28;45319;-64
2022/05/02 11:49:02;;;;;;;;;35.25;31.50;;;;;21.90;35.55;100871.69;4974844;28;46042;-65
2022/05/02 11:51:45;;;;;;;;;32.25;30.00;;;;;21.67;35.21;100854.88;4975091;28;45197;-64
2022/05/02 11:54:32;;;;;;;;;33.25;31.00;;;;;21.49;36.10;100868.75;4975260;28;45374;-64
2022/05/02 11:57:10;;;;;;;;;37.00;32.50;;;;;21.33;35.96;100868.31;4957883;28;45282;-66
2022/05/02 12:00:03;;;;;;;;;25.75;25.75;;;;;21.34;36.29;100860.19;4974799;28;46545;-64
2022/05/02 12:02:39;;;;;;;;;31.00;30.00;;;;;21.38;35.43;100868.78;4975000;28;45255;-62
2022/05/02 12:05:20;;;;;;;;;34.75;31.25;;;;;21.25;35.30;100861.78;4975251;28;45350;-62